sensor_id;sensor_type;location;lat;lon;timestamp;pressure;altitude;pressure_sealevel;temperature;humidity
79465;BME280;68932;47.410;8.232;2023-05-23T00:01:38;96648.58;;;18.24;66.24
79465;BME280;68932;47.410;8.232;2023-05-23T00:04:06;96648.21;;;18.19;66.27
79465;BME280;68932;47.410;8.232;2023-05-23T00:06:35;96647.44;;;18.16;66.35
79465;BME280;68932;47.410;8.232;2023-05-23T00:09:03;96643.64;;;18.12;66.48
79465;BME280;68932;47.410;8.232;2023-05-23T00:11:31;96641.17;;;18.07;66.45
79465;BME280;68932;47.410;8.232;2023-05-23T00:13:59;96643.17;;;18.03;66.66
79465;BME280;68932;47.410;8.232;2023-05-23T00:16:28;96646.88;;;17.99;66.79
79465;BME280;68932;47.410;8.232;2023-05-23T00:18:57;96645.98;;;17.95;66.83
79465;BME280;68932;47.410;8.232;2023-05-23T00:21:25;96644.06;;;17.90;66.89
79465;BME280;68932;47.410;8.232;2023-05-23T00:23:53;96643.59;;;17.84;66.90
79465;BME280;68932;47.410;8.232;2023-05-23T00:26:22;96642.63;;;17.77;67.03
79465;BME280;68932;47.410;8.232;2023-05-23T00:28:50;96648.98;;;17.73;67.08
79465;BME280;68932;47.410;8.232;2023-05-23T00:31:18;96654.04;;;17.70;67.31
79465;BME280;68932;47.410;8.232;2023-05-23T00:33:46;96651.90;;;17.68;67.41
79465;BME280;68932;47.410;8.232;2023-05-23T00:36:15;96648.41;;;17.68;67.46
79465;BME280;68932;47.410;8.232;2023-05-23T00:38:43;96644.39;;;17.65;67.52
79465;BME280;68932;47.410;8.232;2023-05-23T00:41:11;96646.80;;;17.60;67.78
79465;BME280;68932;47.410;8.232;2023-05-23T00:43:40;96649.67;;;17.54;67.81
79465;BME280;68932;47.410;8.232;2023-05-23T00:46:09;96642.76;;;17.49;67.94
79465;BME280;68932;47.410;8.232;2023-05-23T00:48:37;96644.30;;;17.45;67.97
79465;BME280;68932;47.410;8.232;2023-05-23T00:51:06;96649.03;;;17.42;68.09
79465;BME280;68932;47.410;8.232;2023-05-23T00:53:35;96646.90;;;17.38;68.40
79465;BME280;68932;47.410;8.232;2023-05-23T00:56:04;96649.02;;;17.36;68.26
79465;BME280;68932;47.410;8.232;2023-05-23T00:58:32;96649.75;;;17.36;68.28
79465;BME280;68932;47.410;8.232;2023-05-23T01:01:01;96646.81;;;17.35;68.38
79465;BME280;68932;47.410;8.232;2023-05-23T01:03:29;96643.89;;;17.34;68.62
79465;BME280;68932;47.410;8.232;2023-05-23T01:05:58;96642.73;;;17.33;68.74
79465;BME280;68932;47.410;8.232;2023-05-23T01:08:26;96643.41;;;17.34;68.92
79465;BME280;68932;47.410;8.232;2023-05-23T01:10:59;96644.90;;;17.33;69.02
79465;BME280;68932;47.410;8.232;2023-05-23T01:13:36;96648.66;;;17.31;69.33
79465;BME280;68932;47.410;8.232;2023-05-23T01:16:12;96648.17;;;17.29;69.41
79465;BME280;68932;47.410;8.232;2023-05-23T01:18:47;96649.30;;;17.28;69.51
79465;BME280;68932;47.410;8.232;2023-05-23T01:21:18;96647.73;;;17.26;69.39
79465;BME280;68932;47.410;8.232;2023-05-23T01:24:10;96650.42;;;17.22;69.30
79465;BME280;68932;47.410;8.232;2023-05-23T01:27:07;96648.87;;;17.18;69.29
79465;BME280;68932;47.410;8.232;2023-05-23T01:29:39;96649.63;;;17.17;69.31
79465;BME280;68932;47.410;8.232;2023-05-23T01:32:11;96655.91;;;17.14;69.31
79465;BME280;68932;47.410;8.232;2023-05-23T01:34:41;96658.76;;;17.11;69.36
79465;BME280;68932;47.410;8.232;2023-05-23T01:37:11;96660.30;;;17.06;69.46
79465;BME280;68932;47.410;8.232;2023-05-23T01:39:39;96659.30;;;17.02;69.33
79465;BME280;68932;47.410;8.232;2023-05-23T01:42:08;96655.04;;;16.96;69.49
79465;BME280;68932;47.410;8.232;2023-05-23T01:44:38;96649.56;;;16.91;69.93
79465;BME280;68932;47.410;8.232;2023-05-23T01:47:08;96652.46;;;16.87;69.90
79465;BME280;68932;47.410;8.232;2023-05-23T01:49:38;96654.27;;;16.84;69.74
79465;BME280;68932;47.410;8.232;2023-05-23T01:52:08;96650.77;;;16.82;69.92
79465;BME280;68932;47.410;8.232;2023-05-23T01:54:37;96653.34;;;16.79;70.14
79465;BME280;68932;47.410;8.232;2023-05-23T01:57:06;96653.30;;;16.75;70.34
79465;BME280;68932;47.410;8.232;2023-05-23T01:59:34;96656.27;;;16.72;70.59
79465;BME280;68932;47.410;8.232;2023-05-23T02:02:03;96655.82;;;16.69;70.49
79465;BME280;68932;47.410;8.232;2023-05-23T02:04:31;96662.39;;;16.67;70.41
79465;BME280;68932;47.410;8.232;2023-05-23T02:07:00;96664.21;;;16.63;70.39
79465;BME280;68932;47.410;8.232;2023-05-23T02:09:28;96668.99;;;16.61;70.54
79465;BME280;68932;47.410;8.232;2023-05-23T02:11:56;96668.08;;;16.60;70.60
79465;BME280;68932;47.410;8.232;2023-05-23T02:14:24;96672.56;;;16.57;70.56
79465;BME280;68932;47.410;8.232;2023-05-23T02:16:53;96670.33;;;16.53;70.68
79465;BME280;68932;47.410;8.232;2023-05-23T02:19:21;96676.28;;;16.51;70.81
79465;BME280;68932;47.410;8.232;2023-05-23T02:21:49;96673.89;;;16.51;70.97
79465;BME280;68932;47.410;8.232;2023-05-23T02:24:17;96675.70;;;16.50;71.15
79465;BME280;68932;47.410;8.232;2023-05-23T02:26:46;96673.66;;;16.49;71.12
79465;BME280;68932;47.410;8.232;2023-05-23T02:29:14;96677.95;;;16.53;71.27
79465;BME280;68932;47.410;8.232;2023-05-23T02:31:42;96677.20;;;16.55;71.41
79465;BME280;68932;47.410;8.232;2023-05-23T02:34:11;96679.39;;;16.56;71.40
79465;BME280;68932;47.410;8.232;2023-05-23T02:36:39;96681.75;;;16.57;71.31
79465;BME280;68932;47.410;8.232;2023-05-23T02:39:07;96684.77;;;16.57;71.45
79465;BME280;68932;47.410;8.232;2023-05-23T02:41:36;96680.77;;;16.55;71.34
79465;BME280;68932;47.410;8.232;2023-05-23T02:44:04;96680.23;;;16.53;71.40
79465;BME280;68932;47.410;8.232;2023-05-23T02:46:32;96680.98;;;16.49;71.50
79465;BME280;68932;47.410;8.232;2023-05-23T02:49:00;96679.73;;;16.49;71.60
79465;BME280;68932;47.410;8.232;2023-05-23T02:51:29;96679.52;;;16.49;71.71
79465;BME280;68932;47.410;8.232;2023-05-23T02:53:57;96681.34;;;16.49;71.73
79465;BME280;68932;47.410;8.232;2023-05-23T02:56:25;96684.98;;;16.49;71.84
79465;BME280;68932;47.410;8.232;2023-05-23T02:58:53;96688.23;;;16.49;72.01
79465;BME280;68932;47.410;8.232;2023-05-23T03:01:22;96687.82;;;16.49;72.20
79465;BME280;68932;47.410;8.232;2023-05-23T03:03:50;96689.33;;;16.52;72.30
79465;BME280;68932;47.410;8.232;2023-05-23T03:06:18;96689.19;;;16.55;72.32
79465;BME280;68932;47.410;8.232;2023-05-23T03:08:46;96689.71;;;16.57;72.50
79465;BME280;68932;47.410;8.232;2023-05-23T03:11:15;96692.64;;;16.58;72.46
79465;BME280;68932;47.410;8.232;2023-05-23T03:13:43;96695.02;;;16.57;72.63
79465;BME280;68932;47.410;8.232;2023-05-23T03:16:11;96694.32;;;16.57;72.64
79465;BME280;68932;47.410;8.232;2023-05-23T03:18:40;96691.83;;;16.57;72.74
79465;BME280;68932;47.410;8.232;2023-05-23T03:21:08;96691.31;;;16.61;72.85
79465;BME280;68932;47.410;8.232;2023-05-23T03:23:36;96692.57;;;16.63;72.93
79465;BME280;68932;47.410;8.232;2023-05-23T03:26:05;96690.50;;;16.62;72.92
79465;BME280;68932;47.410;8.232;2023-05-23T03:28:33;96687.38;;;16.61;73.01
79465;BME280;68932;47.410;8.232;2023-05-23T03:31:01;96689.32;;;16.62;73.04
79465;BME280;68932;47.410;8.232;2023-05-23T03:33:30;96687.94;;;16.61;73.05
79465;BME280;68932;47.410;8.232;2023-05-23T03:35:58;96688.52;;;16.62;73.07
79465;BME280;68932;47.410;8.232;2023-05-23T03:38:27;96688.88;;;16.64;73.08
79465;BME280;68932;47.410;8.232;2023-05-23T03:40:55;96688.23;;;16.65;73.01
79465;BME280;68932;47.410;8.232;2023-05-23T03:43:24;96690.83;;;16.68;73.01
79465;BME280;68932;47.410;8.232;2023-05-23T03:45:52;96692.77;;;16.68;73.06
79465;BME280;68932;47.410;8.232;2023-05-23T03:48:20;96694.41;;;16.69;73.13
79465;BME280;68932;47.410;8.232;2023-05-23T03:50:48;96698.84;;;16.73;73.13
79465;BME280;68932;47.410;8.232;2023-05-23T03:53:17;96703.73;;;16.75;73.16
79465;BME280;68932;47.410;8.232;2023-05-23T03:55:45;96705.44;;;16.76;73.11
79465;BME280;68932;47.410;8.232;2023-05-23T03:58:13;96710.02;;;16.78;73.22
79465;BME280;68932;47.410;8.232;2023-05-23T04:00:41;96711.75;;;16.76;73.15
79465;BME280;68932;47.410;8.232;2023-05-23T04:03:10;96714.23;;;16.75;73.17
79465;BME280;68932;47.410;8.232;2023-05-23T04:05:38;96715.39;;;16.74;73.03
79465;BME280;68932;47.410;8.232;2023-05-23T04:08:06;96714.43;;;16.75;73.03
79465;BME280;68932;47.410;8.232;2023-05-23T04:10:35;96720.36;;;16.74;73.00
79465;BME280;68932;47.410;8.232;2023-05-23T04:13:03;96722.28;;;16.72;72.93
79465;BME280;68932;47.410;8.232;2023-05-23T04:15:31;96720.84;;;16.70;73.01
79465;BME280;68932;47.410;8.232;2023-05-23T04:18:00;96721.23;;;16.72;73.00
79465;BME280;68932;47.410;8.232;2023-05-23T04:20:28;96723.42;;;16.73;73.05
79465;BME280;68932;47.410;8.232;2023-05-23T04:22:57;96725.02;;;16.75;73.18
79465;BME280;68932;47.410;8.232;2023-05-23T04:25:25;96728.98;;;16.82;75.03
79465;BME280;68932;47.410;8.232;2023-05-23T04:27:53;96730.20;;;16.92;75.19
79465;BME280;68932;47.410;8.232;2023-05-23T04:30:22;96730.88;;;16.99;75.12
79465;BME280;68932;47.410;8.232;2023-05-23T04:32:50;96730.20;;;17.08;75.96
79465;BME280;68932;47.410;8.232;2023-05-23T04:35:19;96728.85;;;17.17;75.83
79465;BME280;68932;47.410;8.232;2023-05-23T04:37:47;96730.36;;;17.24;74.94
79465;BME280;68932;47.410;8.232;2023-05-23T04:40:15;96736.49;;;17.26;73.78
79465;BME280;68932;47.410;8.232;2023-05-23T04:42:44;96733.54;;;17.24;73.59
79465;BME280;68932;47.410;8.232;2023-05-23T04:45:13;96730.19;;;17.23;73.76
79465;BME280;68932;47.410;8.232;2023-05-23T04:47:41;96734.41;;;17.27;73.95
79465;BME280;68932;47.410;8.232;2023-05-23T04:50:10;96734.73;;;17.33;73.90
79465;BME280;68932;47.410;8.232;2023-05-23T04:52:39;96735.77;;;17.39;73.81
79465;BME280;68932;47.410;8.232;2023-05-23T04:55:08;96737.01;;;17.42;73.69
79465;BME280;68932;47.410;8.232;2023-05-23T04:57:37;96736.18;;;17.46;73.75
79465;BME280;68932;47.410;8.232;2023-05-23T05:00:07;96740.20;;;17.49;73.85
79465;BME280;68932;47.410;8.232;2023-05-23T05:02:35;96742.94;;;17.54;73.88
79465;BME280;68932;47.410;8.232;2023-05-23T05:05:04;96744.28;;;17.61;73.74
79465;BME280;68932;47.410;8.232;2023-05-23T05:07:33;96745.61;;;17.67;73.72
79465;BME280;68932;47.410;8.232;2023-05-23T05:10:01;96749.05;;;17.73;73.66
79465;BME280;68932;47.410;8.232;2023-05-23T05:12:30;96745.66;;;17.79;73.51
79465;BME280;68932;47.410;8.232;2023-05-23T05:14:58;96746.55;;;17.86;73.45
79465;BME280;68932;47.410;8.232;2023-05-23T05:17:26;96747.10;;;17.93;73.13
79465;BME280;68932;47.410;8.232;2023-05-23T05:19:54;96747.55;;;17.95;72.88
79465;BME280;68932;47.410;8.232;2023-05-23T05:22:23;96747.77;;;17.99;72.88
79465;BME280;68932;47.410;8.232;2023-05-23T05:24:51;96743.52;;;18.06;72.74
79465;BME280;68932;47.410;8.232;2023-05-23T05:27:19;96741.85;;;18.16;72.47
79465;BME280;68932;47.410;8.232;2023-05-23T05:29:48;96741.94;;;18.22;72.35
79465;BME280;68932;47.410;8.232;2023-05-23T05:32:16;96744.33;;;18.26;72.20
79465;BME280;68932;47.410;8.232;2023-05-23T05:34:44;96742.72;;;18.30;71.81
79465;BME280;68932;47.410;8.232;2023-05-23T05:37:13;96743.01;;;18.36;71.46
79465;BME280;68932;47.410;8.232;2023-05-23T05:39:41;96745.46;;;18.47;71.24
79465;BME280;68932;47.410;8.232;2023-05-23T05:42:09;96748.47;;;18.58;70.68
79465;BME280;68932;47.410;8.232;2023-05-23T05:44:37;96748.60;;;18.68;70.20
79465;BME280;68932;47.410;8.232;2023-05-23T05:47:06;96748.95;;;18.79;69.45
79465;BME280;68932;47.410;8.232;2023-05-23T05:49:34;96751.74;;;18.88;69.01
79465;BME280;68932;47.410;8.232;2023-05-23T05:52:03;96751.17;;;18.99;68.71
79465;BME280;68932;47.410;8.232;2023-05-23T05:54:31;96748.20;;;19.07;68.35
79465;BME280;68932;47.410;8.232;2023-05-23T05:56:59;96752.70;;;19.15;68.26
79465;BME280;68932;47.410;8.232;2023-05-23T05:59:28;96757.50;;;19.24;68.29
79465;BME280;68932;47.410;8.232;2023-05-23T06:01:56;96758.11;;;19.35;68.21
79465;BME280;68932;47.410;8.232;2023-05-23T06:04:24;96756.10;;;19.42;67.72
79465;BME280;68932;47.410;8.232;2023-05-23T06:06:52;96760.24;;;19.43;67.63
79465;BME280;68932;47.410;8.232;2023-05-23T06:09:21;96768.15;;;19.46;67.27
79465;BME280;68932;47.410;8.232;2023-05-23T06:11:49;96767.09;;;19.51;67.08
79465;BME280;68932;47.410;8.232;2023-05-23T06:14:17;96770.08;;;19.56;67.07
79465;BME280;68932;47.410;8.232;2023-05-23T06:16:46;96767.87;;;19.55;66.70
79465;BME280;68932;47.410;8.232;2023-05-23T06:19:14;96765.16;;;19.47;66.10
79465;BME280;68932;47.410;8.232;2023-05-23T06:21:42;96769.38;;;19.37;66.16
79465;BME280;68932;47.410;8.232;2023-05-23T06:24:10;96772.42;;;19.31;66.37
79465;BME280;68932;47.410;8.232;2023-05-23T06:26:39;96771.87;;;19.24;66.66
79465;BME280;68932;47.410;8.232;2023-05-23T06:29:07;96771.02;;;19.19;66.94
79465;BME280;68932;47.410;8.232;2023-05-23T06:31:35;96774.73;;;19.22;67.26
79465;BME280;68932;47.410;8.232;2023-05-23T06:34:04;96776.34;;;19.34;67.32
79465;BME280;68932;47.410;8.232;2023-05-23T06:36:32;96779.12;;;19.48;67.23
79465;BME280;68932;47.410;8.232;2023-05-23T06:39:00;96778.58;;;19.65;66.75
79465;BME280;68932;47.410;8.232;2023-05-23T06:41:28;96782.11;;;19.77;66.12
79465;BME280;68932;47.410;8.232;2023-05-23T06:43:56;96781.73;;;19.82;65.70
79465;BME280;68932;47.410;8.232;2023-05-23T06:46:25;96778.63;;;19.88;65.59
79465;BME280;68932;47.410;8.232;2023-05-23T06:48:53;96784.39;;;20.05;65.67
79465;BME280;68932;47.410;8.232;2023-05-23T06:51:21;96783.58;;;20.18;65.10
79465;BME280;68932;47.410;8.232;2023-05-23T06:53:50;96783.13;;;20.29;64.70
79465;BME280;68932;47.410;8.232;2023-05-23T06:56:18;96782.54;;;20.29;64.44
79465;BME280;68932;47.410;8.232;2023-05-23T06:58:46;96780.57;;;20.28;64.24
79465;BME280;68932;47.410;8.232;2023-05-23T07:01:14;96778.69;;;20.27;64.36
79465;BME280;68932;47.410;8.232;2023-05-23T07:03:43;96776.45;;;20.28;64.41
79465;BME280;68932;47.410;8.232;2023-05-23T07:06:11;96778.77;;;20.28;64.46
79465;BME280;68932;47.410;8.232;2023-05-23T07:08:39;96779.70;;;20.26;64.14
79465;BME280;68932;47.410;8.232;2023-05-23T07:11:08;96783.83;;;20.21;64.12
79465;BME280;68932;47.410;8.232;2023-05-23T07:13:36;96784.30;;;20.15;64.16
79465;BME280;68932;47.410;8.232;2023-05-23T07:16:05;96790.16;;;20.12;64.51
79465;BME280;68932;47.410;8.232;2023-05-23T07:18:33;96794.70;;;20.16;64.81
79465;BME280;68932;47.410;8.232;2023-05-23T07:21:01;96794.23;;;20.20;64.86
79465;BME280;68932;47.410;8.232;2023-05-23T07:23:32;96790.64;;;20.25;64.97
79465;BME280;68932;47.410;8.232;2023-05-23T07:26:01;96792.41;;;20.29;64.65
79465;BME280;68932;47.410;8.232;2023-05-23T07:28:29;96798.18;;;20.30;64.62
79465;BME280;68932;47.410;8.232;2023-05-23T07:30:58;96803.82;;;20.35;64.52
79465;BME280;68932;47.410;8.232;2023-05-23T07:33:26;96802.42;;;20.42;63.75
79465;BME280;68932;47.410;8.232;2023-05-23T07:35:54;96804.19;;;20.44;63.37
79465;BME280;68932;47.410;8.232;2023-05-23T07:38:22;96805.59;;;20.42;63.77
79465;BME280;68932;47.410;8.232;2023-05-23T07:40:51;96805.67;;;20.48;63.74
79465;BME280;68932;47.410;8.232;2023-05-23T07:43:19;96807.23;;;20.56;63.41
79465;BME280;68932;47.410;8.232;2023-05-23T07:45:47;96806.72;;;20.63;63.23
79465;BME280;68932;47.410;8.232;2023-05-23T07:48:15;96805.27;;;20.66;62.86
79465;BME280;68932;47.410;8.232;2023-05-23T07:50:44;96811.09;;;20.67;63.11
79465;BME280;68932;47.410;8.232;2023-05-23T07:53:12;96810.61;;;20.60;62.44
79465;BME280;68932;47.410;8.232;2023-05-23T07:55:41;96811.40;;;20.49;62.46
79465;BME280;68932;47.410;8.232;2023-05-23T07:58:10;96814.20;;;20.40;62.61
79465;BME280;68932;47.410;8.232;2023-05-23T08:00:38;96815.77;;;20.27;62.54
79465;BME280;68932;47.410;8.232;2023-05-23T08:03:06;96815.52;;;20.11;62.63
79465;BME280;68932;47.410;8.232;2023-05-23T08:05:35;96814.79;;;19.98;63.12
79465;BME280;68932;47.410;8.232;2023-05-23T08:08:03;96811.64;;;19.89;63.36
79465;BME280;68932;47.410;8.232;2023-05-23T08:10:31;96811.54;;;19.83;63.82
79465;BME280;68932;47.410;8.232;2023-05-23T08:13:00;96811.30;;;19.82;64.36
79465;BME280;68932;47.410;8.232;2023-05-23T08:15:28;96811.13;;;19.84;64.51
79465;BME280;68932;47.410;8.232;2023-05-23T08:17:56;96814.48;;;19.86;64.30
79465;BME280;68932;47.410;8.232;2023-05-23T08:20:24;96811.87;;;19.90;64.22
79465;BME280;68932;47.410;8.232;2023-05-23T08:22:52;96814.65;;;19.92;64.25
79465;BME280;68932;47.410;8.232;2023-05-23T08:25:21;96812.77;;;19.97;64.33
79465;BME280;68932;47.410;8.232;2023-05-23T08:27:49;96813.73;;;20.03;64.17
79465;BME280;68932;47.410;8.232;2023-05-23T08:30:17;96815.21;;;20.09;64.11
79465;BME280;68932;47.410;8.232;2023-05-23T08:32:45;96815.82;;;20.15;63.94
79465;BME280;68932;47.410;8.232;2023-05-23T08:35:14;96817.85;;;20.19;63.96
79465;BME280;68932;47.410;8.232;2023-05-23T08:37:42;96818.23;;;20.24;63.98
79465;BME280;68932;47.410;8.232;2023-05-23T08:40:16;96818.08;;;20.30;63.93
79465;BME280;68932;47.410;8.232;2023-05-23T08:42:45;96817.41;;;20.38;64.28
79465;BME280;68932;47.410;8.232;2023-05-23T08:45:14;96818.11;;;20.46;64.39
79465;BME280;68932;47.410;8.232;2023-05-23T08:47:44;96818.34;;;20.56;64.38
79465;BME280;68932;47.410;8.232;2023-05-23T08:50:15;96816.84;;;20.65;63.99
79465;BME280;68932;47.410;8.232;2023-05-23T08:52:49;96814.00;;;20.75;63.77
79465;BME280;68932;47.410;8.232;2023-05-23T08:55:19;96813.74;;;20.84;63.82
79465;BME280;68932;47.410;8.232;2023-05-23T08:57:49;96814.25;;;20.95;63.36
79465;BME280;68932;47.410;8.232;2023-05-23T09:00:19;96808.93;;;21.12;62.54
79465;BME280;68932;47.410;8.232;2023-05-23T09:02:48;96809.55;;;21.31;62.63
79465;BME280;68932;47.410;8.232;2023-05-23T09:05:16;96805.50;;;21.45;62.04
79465;BME280;68932;47.410;8.232;2023-05-23T09:07:46;96804.36;;;21.57;61.90
79465;BME280;68932;47.410;8.232;2023-05-23T09:10:15;96804.16;;;21.69;61.73
79465;BME280;68932;47.410;8.232;2023-05-23T09:12:44;96803.45;;;21.77;60.59
79465;BME280;68932;47.410;8.232;2023-05-23T09:15:13;96799.83;;;21.85;59.86
79465;BME280;68932;47.410;8.232;2023-05-23T09:17:41;96799.41;;;21.94;58.99
79465;BME280;68932;47.410;8.232;2023-05-23T09:20:15;96801.69;;;22.03;58.58
79465;BME280;68932;47.410;8.232;2023-05-23T09:22:46;96807.98;;;22.15;58.39
79465;BME280;68932;47.410;8.232;2023-05-23T09:25:15;96804.66;;;22.21;57.38
79465;BME280;68932;47.410;8.232;2023-05-23T09:27:43;96803.42;;;22.25;57.78
79465;BME280;68932;47.410;8.232;2023-05-23T09:30:14;96807.00;;;22.40;57.63
79465;BME280;68932;47.410;8.232;2023-05-23T09:32:42;96805.62;;;22.56;57.20
79465;BME280;68932;47.410;8.232;2023-05-23T09:35:24;96803.83;;;22.73;56.62
79465;BME280;68932;47.410;8.232;2023-05-23T09:37:57;96800.38;;;22.84;56.14
79465;BME280;68932;47.410;8.232;2023-05-23T09:40:30;96796.27;;;22.99;56.61
79465;BME280;68932;47.410;8.232;2023-05-23T09:43:02;96789.14;;;23.11;56.33
79465;BME280;68932;47.410;8.232;2023-05-23T09:45:32;96789.25;;;23.19;56.07
79465;BME280;68932;47.410;8.232;2023-05-23T09:48:00;96783.69;;;23.29;56.45
79465;BME280;68932;47.410;8.232;2023-05-23T09:50:32;96784.85;;;23.40;56.21
79465;BME280;68932;47.410;8.232;2023-05-23T09:53:01;96779.10;;;23.52;55.24
79465;BME280;68932;47.410;8.232;2023-05-23T09:55:29;96781.71;;;23.62;54.54
79465;BME280;68932;47.410;8.232;2023-05-23T09:57:59;96782.15;;;23.67;54.39
79465;BME280;68932;47.410;8.232;2023-05-23T10:00:28;96780.95;;;23.64;53.90
79465;BME280;68932;47.410;8.232;2023-05-23T10:03:00;96782.23;;;23.61;53.48
79465;BME280;68932;47.410;8.232;2023-05-23T10:05:35;96777.12;;;23.64;53.13
79465;BME280;68932;47.410;8.232;2023-05-23T10:08:09;96780.51;;;23.62;52.32
79465;BME280;68932;47.410;8.232;2023-05-23T10:13:42;96776.20;;;23.85;54.41
79465;BME280;68932;47.410;8.232;2023-05-23T10:16:18;96769.96;;;23.89;53.20
79465;BME280;68932;47.410;8.232;2023-05-23T10:18:51;96772.21;;;23.84;52.49
79465;BME280;68932;47.410;8.232;2023-05-23T10:21:28;96776.70;;;23.77;52.06
79465;BME280;68932;47.410;8.232;2023-05-23T10:23:58;96773.95;;;23.68;51.96
79465;BME280;68932;47.410;8.232;2023-05-23T10:26:27;96777.79;;;23.65;52.28
79465;BME280;68932;47.410;8.232;2023-05-23T10:28:56;96775.65;;;23.59;52.24
79465;BME280;68932;47.410;8.232;2023-05-23T10:31:26;96773.38;;;23.48;52.03
79465;BME280;68932;47.410;8.232;2023-05-23T10:33:57;96768.02;;;23.45;52.33
79465;BME280;68932;47.410;8.232;2023-05-23T10:36:36;96770.17;;;23.49;54.01
79465;BME280;68932;47.410;8.232;2023-05-23T10:39:11;96771.11;;;23.52;53.38
79465;BME280;68932;47.410;8.232;2023-05-23T10:41:46;96767.91;;;23.58;53.15
79465;BME280;68932;47.410;8.232;2023-05-23T10:44:19;96770.27;;;23.59;52.88
79465;BME280;68932;47.410;8.232;2023-05-23T10:46:55;96765.98;;;23.47;52.45
79465;BME280;68932;47.410;8.232;2023-05-23T10:49:38;96768.11;;;23.31;52.52
79465;BME280;68932;47.410;8.232;2023-05-23T10:52:07;96762.89;;;23.10;53.00
79465;BME280;68932;47.410;8.232;2023-05-23T10:54:36;96765.75;;;22.98;53.74
79465;BME280;68932;47.410;8.232;2023-05-23T10:57:10;96764.79;;;22.87;53.73
79465;BME280;68932;47.410;8.232;2023-05-23T10:59:40;96765.23;;;22.72;55.09
79465;BME280;68932;47.410;8.232;2023-05-23T11:02:14;96768.30;;;22.57;56.34
79465;BME280;68932;47.410;8.232;2023-05-23T11:04:43;96776.02;;;22.45;56.88
79465;BME280;68932;47.410;8.232;2023-05-23T11:07:31;96777.16;;;22.30;57.90
79465;BME280;68932;47.410;8.232;2023-05-23T11:10:09;96781.47;;;22.15;58.35
79465;BME280;68932;47.410;8.232;2023-05-23T11:12:39;96777.39;;;22.01;60.35
79465;BME280;68932;47.410;8.232;2023-05-23T11:15:21;96773.98;;;21.88;63.20
79465;BME280;68932;47.410;8.232;2023-05-23T11:17:54;96773.23;;;21.81;63.91
79465;BME280;68932;47.410;8.232;2023-05-23T11:20:24;96770.02;;;21.78;65.22
79465;BME280;68932;47.410;8.232;2023-05-23T11:22:59;96764.94;;;21.74;65.54
79465;BME280;68932;47.410;8.232;2023-05-23T11:25:41;96765.92;;;21.88;66.85
79465;BME280;68932;47.410;8.232;2023-05-23T11:28:11;96771.05;;;22.15;67.86
79465;BME280;68932;47.410;8.232;2023-05-23T11:30:40;96770.31;;;22.40;68.73
79465;BME280;68932;47.410;8.232;2023-05-23T11:33:10;96765.92;;;22.67;66.92
79465;BME280;68932;47.410;8.232;2023-05-23T11:35:39;96765.41;;;22.92;65.00
79465;BME280;68932;47.410;8.232;2023-05-23T11:38:07;96757.52;;;23.19;65.01
79465;BME280;68932;47.410;8.232;2023-05-23T11:40:38;96753.23;;;23.39;64.00
79465;BME280;68932;47.410;8.232;2023-05-23T11:43:07;96746.45;;;23.59;62.17
79465;BME280;68932;47.410;8.232;2023-05-23T11:45:37;96746.13;;;23.76;61.87
79465;BME280;68932;47.410;8.232;2023-05-23T11:48:10;96747.16;;;23.82;61.06
79465;BME280;68932;47.410;8.232;2023-05-23T11:50:46;96749.92;;;23.86;60.21
79465;BME280;68932;47.410;8.232;2023-05-23T11:53:16;96749.38;;;23.96;60.30
79465;BME280;68932;47.410;8.232;2023-05-23T11:55:51;96749.11;;;24.16;60.54
79465;BME280;68932;47.410;8.232;2023-05-23T11:58:21;96742.75;;;24.39;58.24
79465;BME280;68932;47.410;8.232;2023-05-23T12:00:50;96742.17;;;24.48;57.12
79465;BME280;68932;47.410;8.232;2023-05-23T12:03:18;96745.63;;;24.47;56.06
79465;BME280;68932;47.410;8.232;2023-05-23T12:05:46;96742.07;;;24.38;55.25
79465;BME280;68932;47.410;8.232;2023-05-23T12:08:14;96743.00;;;24.30;55.78
79465;BME280;68932;47.410;8.232;2023-05-23T12:13:33;96746.63;;;24.11;56.21
79465;BME280;68932;47.410;8.232;2023-05-23T12:16:02;96755.83;;;23.92;57.32
79465;BME280;68932;47.410;8.232;2023-05-23T12:18:32;96769.65;;;23.64;56.57
79465;BME280;68932;47.410;8.232;2023-05-23T12:21:06;96779.20;;;23.21;56.98
79465;BME280;68932;47.410;8.232;2023-05-23T12:23:35;96782.91;;;22.71;58.19
79465;BME280;68932;47.410;8.232;2023-05-23T12:26:05;96780.38;;;22.33;59.44
79465;BME280;68932;47.410;8.232;2023-05-23T12:28:38;96781.88;;;21.99;59.47
79465;BME280;68932;47.410;8.232;2023-05-23T12:31:15;96786.94;;;21.62;59.22
79465;BME280;68932;47.410;8.232;2023-05-23T12:33:45;96788.33;;;21.21;59.53
79465;BME280;68932;47.410;8.232;2023-05-23T12:36:15;96783.89;;;20.85;60.60
79465;BME280;68932;47.410;8.232;2023-05-23T12:38:48;96775.73;;;20.53;61.36
79465;BME280;68932;47.410;8.232;2023-05-23T12:41:18;96765.08;;;20.30;62.23
79465;BME280;68932;47.410;8.232;2023-05-23T12:43:52;96759.63;;;20.16;63.93
79465;BME280;68932;47.410;8.232;2023-05-23T12:46:21;96766.06;;;20.08;64.55
79465;BME280;68932;47.410;8.232;2023-05-23T12:48:50;96771.13;;;19.99;65.24
79465;BME280;68932;47.410;8.232;2023-05-23T12:51:19;96768.11;;;19.91;66.66
79465;BME280;68932;47.410;8.232;2023-05-23T12:53:47;96765.02;;;19.87;67.39
79465;BME280;68932;47.410;8.232;2023-05-23T12:56:16;96763.38;;;19.83;67.84
79465;BME280;68932;47.410;8.232;2023-05-23T12:58:44;96762.60;;;19.80;68.68
79465;BME280;68932;47.410;8.232;2023-05-23T13:01:12;96767.02;;;19.79;68.98
79465;BME280;68932;47.410;8.232;2023-05-23T13:03:40;96764.23;;;19.77;69.36
79465;BME280;68932;47.410;8.232;2023-05-23T13:06:09;96761.26;;;19.74;69.53
79465;BME280;68932;47.410;8.232;2023-05-23T13:08:37;96759.83;;;19.74;68.88
79465;BME280;68932;47.410;8.232;2023-05-23T13:11:06;96764.55;;;19.72;69.36
79465;BME280;68932;47.410;8.232;2023-05-23T13:13:35;96767.14;;;19.71;69.69
79465;BME280;68932;47.410;8.232;2023-05-23T13:16:04;96768.17;;;19.66;69.36
79465;BME280;68932;47.410;8.232;2023-05-23T13:18:32;96764.59;;;19.65;70.01